Terminal Aerodrome Forecast
Issued by NWS Louisville, KY

Home | Current Version | Previous Version | Text Only | Print | Product List | Glossary On
Versions: 1 2 3 4 5 6 7 8 9 10 11 12 13 14 15 16 17 18 19 20 21
388
FTUS43 KLMK 052340
TAFBWG
TAF
KBWG 052340Z 0600/0624 06007KT P6SM OVC020
     FM060400 09005KT 5SM -RA BR OVC010
     FM060900 VRB05KT 4SM RA BR OVC005
     FM061500 VRB05KT 4SM BR OVC005
     FM061800 27008KT 5SM BR OVC010
     FM062100 28008KT P6SM OVC015=

USA.gov is the U.S. government's official web portal to all federal, state and local government web resources and services.